createdAt,value
2023-06-30T00:00:49.185Z,19.19
2023-06-30T00:01:49.239Z,19.19
2023-06-30T00:02:49.376Z,19.18
2023-06-30T00:03:49.229Z,19.19
2023-06-30T00:04:49.157Z,19.18
2023-06-30T00:05:49.146Z,19.18
2023-06-30T00:06:49.123Z,19.14
2023-06-30T00:07:49.126Z,19.10
2023-06-30T00:08:49.102Z,19.08
2023-06-30T00:09:49.111Z,19.06
2023-06-30T00:10:49.082Z,18.95
2023-06-30T00:11:49.090Z,18.87
2023-06-30T00:12:49.070Z,18.82
2023-06-30T00:13:49.051Z,18.84
2023-06-30T00:14:49.056Z,18.80
2023-06-30T00:15:49.639Z,18.75
2023-06-30T00:16:49.028Z,18.70
2023-06-30T00:17:49.039Z,18.66
2023-06-30T00:18:49.000Z,18.63
2023-06-30T00:19:48.996Z,18.55
2023-06-30T00:20:48.977Z,18.45
2023-06-30T00:21:48.970Z,18.39
2023-06-30T00:22:48.963Z,18.30
2023-06-30T00:23:48.962Z,18.27
2023-06-30T00:24:48.933Z,18.27
2023-06-30T00:25:48.920Z,18.23
2023-06-30T00:26:48.912Z,18.14
2023-06-30T00:27:48.910Z,18.10
2023-06-30T00:28:48.900Z,18.07
2023-06-30T00:29:48.923Z,18.07
2023-06-30T00:30:48.923Z,18.03
2023-06-30T00:31:48.863Z,18.03
2023-06-30T00:32:48.982Z,18.05
2023-06-30T00:33:48.838Z,18.02
2023-06-30T00:34:48.818Z,17.97
2023-06-30T00:35:48.831Z,17.93
2023-06-30T00:36:48.834Z,17.93
2023-06-30T00:37:48.809Z,17.95
2023-06-30T00:38:48.790Z,17.90
2023-06-30T00:39:48.857Z,17.87
2023-06-30T00:40:48.841Z,17.87
2023-06-30T00:41:48.758Z,17.84
2023-06-30T00:42:48.734Z,17.84
2023-06-30T00:43:48.740Z,17.82
2023-06-30T00:44:48.715Z,17.79
2023-06-30T00:45:48.745Z,17.77
2023-06-30T00:46:48.767Z,17.74
2023-06-30T00:47:48.688Z,17.74
2023-06-30T00:48:48.670Z,17.71
2023-06-30T00:49:48.665Z,17.72
2023-06-30T00:50:48.656Z,17.68
2023-06-30T00:51:48.644Z,17.64
2023-06-30T00:52:48.620Z,17.66
2023-06-30T00:53:48.616Z,17.64
2023-06-30T00:54:48.598Z,17.62
2023-06-30T00:55:48.791Z,17.62
2023-06-30T00:56:48.635Z,17.59
2023-06-30T00:57:48.739Z,17.58
2023-06-30T00:58:48.592Z,17.58
2023-06-30T00:59:48.538Z,17.55
2023-06-30T01:00:48.536Z,17.56
2023-06-30T01:01:48.672Z,17.54
2023-06-30T01:02:49.937Z,17.52
2023-06-30T01:03:48.706Z,17.49
2023-06-30T01:04:48.548Z,17.48
2023-06-30T01:05:48.551Z,17.46
2023-06-30T01:06:48.458Z,17.44
2023-06-30T01:07:48.490Z,17.46
2023-06-30T01:08:48.439Z,17.49
2023-06-30T01:09:48.434Z,17.48
2023-06-30T01:10:48.415Z,17.44
2023-06-30T01:11:48.409Z,17.44
2023-06-30T01:12:48.395Z,17.43
2023-06-30T01:13:48.402Z,17.41
2023-06-30T01:14:48.381Z,17.41
2023-06-30T01:15:48.382Z,17.31
2023-06-30T01:16:48.402Z,17.30
2023-06-30T01:17:48.381Z,17.30
2023-06-30T01:18:48.344Z,17.26
2023-06-30T01:19:48.322Z,17.25
2023-06-30T01:20:48.306Z,17.23
2023-06-30T01:21:48.287Z,17.22
2023-06-30T01:22:48.290Z,17.18
2023-06-30T01:23:48.285Z,17.16
2023-06-30T01:24:48.256Z,17.12
2023-06-30T01:25:48.476Z,17.07
2023-06-30T01:26:48.247Z,17.07
2023-06-30T01:27:48.266Z,17.03
2023-06-30T01:28:48.255Z,17.03
2023-06-30T01:29:48.214Z,17.01
2023-06-30T01:30:48.211Z,17.01
2023-06-30T01:31:48.204Z,16.98
2023-06-30T01:32:48.233Z,16.96
2023-06-30T01:33:48.203Z,16.96
2023-06-30T01:34:48.169Z,16.94
2023-06-30T01:35:48.171Z,16.96
2023-06-30T01:36:48.159Z,16.94
2023-06-30T01:37:48.122Z,16.94
2023-06-30T01:38:48.107Z,16.93
2023-06-30T01:39:48.106Z,16.94
2023-06-30T01:40:48.087Z,16.93
2023-06-30T01:41:48.067Z,16.89
2023-06-30T01:42:48.064Z,16.89
2023-06-30T01:43:48.053Z,16.88
2023-06-30T01:44:48.062Z,16.89
2023-06-30T01:45:48.250Z,16.89
2023-06-30T01:46:48.119Z,16.88
2023-06-30T01:47:48.433Z,16.86
2023-06-30T01:48:48.005Z,16.86
2023-06-30T01:49:48.022Z,16.83
2023-06-30T01:50:47.988Z,16.82
2023-06-30T01:51:47.965Z,16.82
2023-06-30T01:52:47.965Z,16.78
2023-06-30T01:53:47.940Z,16.76
2023-06-30T01:54:47.919Z,16.76
2023-06-30T01:55:47.954Z,16.75
2023-06-30T01:56:47.947Z,16.76
2023-06-30T01:57:47.904Z,16.75
2023-06-30T01:58:47.885Z,16.73
2023-06-30T01:59:47.903Z,16.73
2023-06-30T02:00:47.855Z,16.71
2023-06-30T02:01:48.228Z,16.70
2023-06-30T02:02:47.907Z,16.68
2023-06-30T02:03:47.851Z,16.67
2023-06-30T02:04:47.817Z,16.64
2023-06-30T02:05:48.040Z,16.63
2023-06-30T02:06:47.801Z,16.60
2023-06-30T02:07:47.790Z,16.60
2023-06-30T02:08:47.808Z,16.60
2023-06-30T02:09:49.203Z,16.60
2023-06-30T02:10:47.760Z,16.58
2023-06-30T02:11:47.735Z,16.53
2023-06-30T02:12:47.726Z,16.53
2023-06-30T02:13:47.740Z,16.53
2023-06-30T02:14:47.709Z,16.52
2023-06-30T02:15:48.070Z,16.52
2023-06-30T02:16:47.772Z,16.50
2023-06-30T02:17:47.686Z,16.48
2023-06-30T02:18:47.651Z,16.45
2023-06-30T02:19:47.707Z,16.45
2023-06-30T02:20:47.633Z,16.43
2023-06-30T02:21:47.637Z,16.41
2023-06-30T02:22:47.612Z,16.38
2023-06-30T02:23:47.617Z,16.34
2023-06-30T02:24:47.628Z,16.38
2023-06-30T02:25:47.917Z,16.33
2023-06-30T02:26:47.579Z,16.30
2023-06-30T02:27:47.572Z,16.30
2023-06-30T02:28:47.561Z,16.30
2023-06-30T02:29:47.564Z,16.28
2023-06-30T02:30:47.541Z,16.30
2023-06-30T02:31:47.712Z,16.31
2023-06-30T02:32:47.609Z,16.30
2023-06-30T02:33:47.508Z,16.30
2023-06-30T02:34:47.537Z,16.30
2023-06-30T02:35:47.903Z,16.27
2023-06-30T02:36:47.475Z,16.27
2023-06-30T02:37:47.459Z,16.27
2023-06-30T02:38:47.452Z,16.25
2023-06-30T02:39:47.434Z,16.23
2023-06-30T02:40:47.425Z,16.23
2023-06-30T02:41:47.412Z,16.24
2023-06-30T02:42:47.398Z,16.25
2023-06-30T02:43:47.418Z,16.27
2023-06-30T02:44:47.377Z,16.28
2023-06-30T02:45:47.756Z,16.31
2023-06-30T02:46:47.372Z,16.31
2023-06-30T02:47:47.385Z,16.31
2023-06-30T02:48:47.332Z,16.30
2023-06-30T02:49:47.327Z,16.27
2023-06-30T02:50:47.444Z,16.24
2023-06-30T02:51:47.310Z,16.24
2023-06-30T02:52:47.306Z,16.27
2023-06-30T02:53:47.285Z,16.27
2023-06-30T02:54:47.271Z,16.25
2023-06-30T02:55:47.544Z,16.24
2023-06-30T02:56:47.254Z,16.25
2023-06-30T02:57:47.242Z,16.24
2023-06-30T02:58:47.229Z,16.21
2023-06-30T02:59:47.237Z,16.21
2023-06-30T03:00:47.363Z,16.24
2023-06-30T03:01:47.248Z,16.25
2023-06-30T03:02:47.313Z,16.23
2023-06-30T03:03:47.245Z,16.17
2023-06-30T03:04:47.185Z,16.14
2023-06-30T03:05:47.503Z,16.12
2023-06-30T03:06:47.144Z,16.12
2023-06-30T03:07:47.126Z,16.12
2023-06-30T03:08:47.391Z,16.14
2023-06-30T03:09:47.111Z,16.14
2023-06-30T03:10:47.097Z,16.14
2023-06-30T03:11:47.106Z,16.14
2023-06-30T03:12:47.074Z,16.12
2023-06-30T03:13:47.061Z,16.12
2023-06-30T03:14:47.062Z,16.12
2023-06-30T03:15:47.323Z,16.12
2023-06-30T03:16:47.096Z,16.12
2023-06-30T03:17:47.096Z,16.11
2023-06-30T03:18:47.026Z,16.11
2023-06-30T03:19:47.000Z,16.09
2023-06-30T03:20:47.002Z,16.08
2023-06-30T03:21:47.004Z,16.07
2023-06-30T03:22:46.982Z,16.05
2023-06-30T03:23:46.959Z,15.97
2023-06-30T03:24:46.951Z,15.96
2023-06-30T03:25:47.281Z,15.97
2023-06-30T03:26:46.927Z,15.94
2023-06-30T03:27:46.943Z,15.94
2023-06-30T03:28:46.927Z,15.94
2023-06-30T03:29:46.881Z,15.94
2023-06-30T03:30:46.996Z,15.94
2023-06-30T03:31:46.878Z,15.93
2023-06-30T03:32:46.943Z,15.92
2023-06-30T03:33:46.839Z,15.93
2023-06-30T03:34:46.863Z,15.92
2023-06-30T03:35:47.140Z,15.90
2023-06-30T03:36:46.815Z,15.90
2023-06-30T03:37:46.796Z,15.87
2023-06-30T03:38:46.804Z,15.83
2023-06-30T03:39:46.780Z,15.84
2023-06-30T03:40:46.783Z,15.84
2023-06-30T03:41:46.772Z,15.80
2023-06-30T03:42:46.755Z,15.78
2023-06-30T03:43:46.730Z,15.78
2023-06-30T03:44:46.735Z,15.76
2023-06-30T03:45:47.078Z,15.76
2023-06-30T03:46:46.742Z,15.80
2023-06-30T03:47:46.719Z,15.80
2023-06-30T03:48:46.706Z,15.78
2023-06-30T03:49:46.703Z,15.82
2023-06-30T03:50:46.667Z,15.80
2023-06-30T03:51:46.647Z,15.76
2023-06-30T03:52:46.670Z,15.74
2023-06-30T03:53:46.713Z,15.74
2023-06-30T03:54:46.643Z,15.72
2023-06-30T03:55:46.962Z,15.71
2023-06-30T03:56:46.590Z,15.65
2023-06-30T03:57:46.569Z,15.65
2023-06-30T03:58:46.581Z,15.62
2023-06-30T03:59:46.555Z,15.54
2023-06-30T04:00:46.547Z,15.54
2023-06-30T04:01:46.530Z,15.53
2023-06-30T04:02:46.587Z,15.57
2023-06-30T04:03:46.733Z,15.59
2023-06-30T04:04:46.524Z,15.60
2023-06-30T04:05:46.823Z,15.59
2023-06-30T04:06:46.478Z,15.56
2023-06-30T04:07:46.564Z,15.54
2023-06-30T04:08:46.458Z,15.56
2023-06-30T04:09:46.452Z,15.57
2023-06-30T04:10:46.439Z,15.60
2023-06-30T04:11:46.426Z,15.57
2023-06-30T04:12:46.426Z,15.59
2023-06-30T04:13:46.409Z,15.57
2023-06-30T04:14:46.396Z,15.56
2023-06-30T04:15:46.684Z,15.54
2023-06-30T04:16:46.506Z,15.56
2023-06-30T04:17:46.396Z,15.56
2023-06-30T04:18:46.351Z,15.56
2023-06-30T04:19:46.337Z,15.56
2023-06-30T04:20:46.316Z,15.59
2023-06-30T04:21:46.320Z,15.54
2023-06-30T04:22:46.301Z,15.53
2023-06-30T04:23:46.298Z,15.53
2023-06-30T04:24:46.306Z,15.54
2023-06-30T04:25:46.570Z,15.54
2023-06-30T04:26:46.327Z,15.54
2023-06-30T04:27:46.265Z,15.57
2023-06-30T04:28:46.248Z,15.59
2023-06-30T04:29:46.290Z,15.56
2023-06-30T04:30:46.227Z,15.53
2023-06-30T04:31:46.398Z,15.53
2023-06-30T04:32:46.266Z,15.51
2023-06-30T04:33:46.315Z,15.51
2023-06-30T04:34:46.172Z,15.51
2023-06-30T04:35:46.536Z,15.53
2023-06-30T04:36:46.161Z,15.53
2023-06-30T04:37:46.142Z,15.53
2023-06-30T04:38:46.157Z,15.51
2023-06-30T04:39:46.134Z,15.50
2023-06-30T04:40:46.108Z,15.50
2023-06-30T04:41:46.119Z,15.50
2023-06-30T04:42:46.094Z,15.49
2023-06-30T04:43:46.084Z,15.53
2023-06-30T04:44:46.062Z,15.53
2023-06-30T04:45:46.221Z,15.50
2023-06-30T04:46:46.100Z,15.50
2023-06-30T04:47:46.083Z,15.50
2023-06-30T04:48:46.031Z,15.50
2023-06-30T04:49:46.009Z,15.50
2023-06-30T04:50:45.992Z,15.51
2023-06-30T04:51:46.036Z,15.51
2023-06-30T04:52:45.988Z,15.51
2023-06-30T04:53:45.980Z,15.51
2023-06-30T04:54:45.968Z,15.51
2023-06-30T04:55:46.089Z,15.50
2023-06-30T04:56:45.926Z,15.50
2023-06-30T04:57:45.919Z,15.53
2023-06-30T04:58:45.917Z,15.56
2023-06-30T04:59:45.938Z,15.56
2023-06-30T05:00:45.883Z,15.59
2023-06-30T05:01:45.886Z,15.59
2023-06-30T05:02:45.882Z,15.62
2023-06-30T05:03:45.903Z,15.64
2023-06-30T05:04:45.840Z,15.62
2023-06-30T05:05:45.993Z,15.64
2023-06-30T05:06:45.822Z,15.65
2023-06-30T05:07:45.815Z,15.65
2023-06-30T05:08:45.803Z,15.67
2023-06-30T05:09:45.782Z,15.71
2023-06-30T05:10:45.767Z,15.71
2023-06-30T05:11:45.775Z,15.69
2023-06-30T05:12:45.753Z,15.69
2023-06-30T05:13:45.755Z,15.72
2023-06-30T05:14:45.729Z,15.71
2023-06-30T05:15:46.041Z,15.74
2023-06-30T05:16:45.777Z,15.75
2023-06-30T05:17:45.722Z,15.78
2023-06-30T05:18:45.769Z,15.80
2023-06-30T05:19:45.680Z,15.78
2023-06-30T05:20:45.685Z,15.78
2023-06-30T05:21:45.656Z,15.80
2023-06-30T05:22:45.658Z,15.76
2023-06-30T05:23:45.644Z,15.80
2023-06-30T05:24:45.626Z,15.80
2023-06-30T05:25:45.924Z,15.82
2023-06-30T05:26:45.599Z,15.80
2023-06-30T05:27:45.612Z,15.80
2023-06-30T05:28:52.768Z,15.82
2023-06-30T05:29:46.583Z,15.82
2023-06-30T05:30:45.568Z,15.82
2023-06-30T05:31:45.670Z,15.82
2023-06-30T05:32:45.599Z,15.83
2023-06-30T05:33:45.523Z,15.84
2023-06-30T05:34:45.509Z,15.86
2023-06-30T05:35:45.779Z,15.87
2023-06-30T05:36:45.495Z,15.87
2023-06-30T05:37:45.491Z,15.89
2023-06-30T05:38:45.464Z,15.90
2023-06-30T05:39:45.476Z,15.94
2023-06-30T05:40:45.443Z,15.97
2023-06-30T05:41:45.452Z,16.00
2023-06-30T05:42:45.438Z,16.00
2023-06-30T05:43:45.424Z,16.00
2023-06-30T05:44:45.481Z,16.04
2023-06-30T05:45:45.706Z,16.04
2023-06-30T05:46:45.459Z,16.05
2023-06-30T05:47:45.435Z,16.07
2023-06-30T05:48:45.367Z,16.08
2023-06-30T05:49:45.350Z,16.12
2023-06-30T05:50:45.343Z,16.14
2023-06-30T05:51:45.340Z,16.20
2023-06-30T05:52:45.310Z,16.21
2023-06-30T05:53:45.318Z,16.20
2023-06-30T05:54:45.296Z,16.21
2023-06-30T05:55:45.520Z,16.21
2023-06-30T05:56:45.278Z,16.23
2023-06-30T05:57:45.258Z,16.25
2023-06-30T05:58:45.242Z,16.27
2023-06-30T05:59:45.236Z,16.28
2023-06-30T06:00:45.285Z,16.31
2023-06-30T06:01:45.217Z,16.34
2023-06-30T06:02:45.342Z,16.35
2023-06-30T06:03:45.470Z,16.38
2023-06-30T06:04:45.402Z,16.38
2023-06-30T06:05:45.666Z,16.38
2023-06-30T06:06:45.151Z,16.35
2023-06-30T06:07:45.282Z,16.30
2023-06-30T06:08:45.176Z,16.28
2023-06-30T06:09:45.137Z,16.30
2023-06-30T06:10:45.244Z,16.28
2023-06-30T06:11:45.138Z,16.30
2023-06-30T06:12:45.116Z,16.28
2023-06-30T06:13:45.088Z,16.31
2023-06-30T06:14:45.072Z,16.38
2023-06-30T06:15:45.290Z,16.41
2023-06-30T06:16:45.096Z,16.45
2023-06-30T06:17:45.083Z,16.45
2023-06-30T06:18:46.498Z,16.52
2023-06-30T06:19:45.041Z,16.50
2023-06-30T06:20:45.020Z,16.49
2023-06-30T06:21:45.015Z,16.50
2023-06-30T06:22:44.988Z,16.52
2023-06-30T06:23:45.120Z,16.50
2023-06-30T06:24:44.968Z,16.52
2023-06-30T06:25:45.607Z,16.46
2023-06-30T06:26:44.951Z,16.43
2023-06-30T06:27:44.937Z,16.39
2023-06-30T06:28:44.931Z,16.39
2023-06-30T06:29:44.935Z,16.38
2023-06-30T06:30:44.931Z,16.42
2023-06-30T06:31:44.891Z,16.46
2023-06-30T06:32:44.917Z,16.48
2023-06-30T06:33:44.889Z,16.48
2023-06-30T06:34:44.857Z,16.46
2023-06-30T06:35:45.173Z,16.43
2023-06-30T06:36:44.844Z,16.42
2023-06-30T06:37:44.839Z,16.41
2023-06-30T06:38:44.806Z,16.38
2023-06-30T06:39:45.749Z,16.35
2023-06-30T06:40:44.801Z,16.35
2023-06-30T06:41:44.782Z,16.33
2023-06-30T06:42:44.784Z,16.30
2023-06-30T06:43:44.760Z,16.31
2023-06-30T06:44:44.743Z,16.33
2023-06-30T06:45:45.154Z,16.33
2023-06-30T06:46:44.834Z,16.28
2023-06-30T06:47:44.748Z,16.31
2023-06-30T06:48:44.729Z,16.30
2023-06-30T06:49:46.874Z,16.30
2023-06-30T06:50:44.676Z,16.31
2023-06-30T06:51:44.697Z,16.25
2023-06-30T06:52:44.661Z,16.24
2023-06-30T06:53:44.650Z,16.25
2023-06-30T06:54:44.631Z,16.23
2023-06-30T06:55:44.933Z,16.20
2023-06-30T06:56:44.634Z,16.21
2023-06-30T06:57:44.602Z,16.25
2023-06-30T06:58:44.591Z,16.27
2023-06-30T06:59:44.619Z,16.34
2023-06-30T07:00:44.575Z,16.39
2023-06-30T07:01:44.942Z,16.43
2023-06-30T07:02:44.676Z,16.46
2023-06-30T07:03:44.604Z,16.48
2023-06-30T07:04:44.535Z,16.50
2023-06-30T07:05:45.061Z,16.53
2023-06-30T07:06:44.502Z,16.53
2023-06-30T07:07:44.613Z,16.56
2023-06-30T07:08:44.488Z,16.56
2023-06-30T07:09:44.541Z,16.56
2023-06-30T07:10:44.468Z,16.61
2023-06-30T07:11:44.468Z,16.63
2023-06-30T07:12:44.432Z,16.60
2023-06-30T07:13:44.441Z,16.60
2023-06-30T07:14:47.237Z,16.63
2023-06-30T07:15:44.734Z,16.71
2023-06-30T07:16:44.499Z,16.68
2023-06-30T07:17:44.500Z,16.75
2023-06-30T07:18:44.407Z,16.79
2023-06-30T07:19:44.383Z,16.81
2023-06-30T07:20:44.341Z,16.88
2023-06-30T07:21:44.329Z,16.83
2023-06-30T07:22:44.321Z,16.83
2023-06-30T07:23:44.327Z,16.86
2023-06-30T07:24:44.438Z,16.86
2023-06-30T07:25:44.724Z,16.94
2023-06-30T07:26:44.270Z,16.98
2023-06-30T07:27:44.314Z,16.94
2023-06-30T07:28:44.262Z,16.96
2023-06-30T07:29:44.258Z,16.98
2023-06-30T07:30:44.244Z,16.96
2023-06-30T07:31:44.304Z,16.96
2023-06-30T07:32:44.254Z,16.96
2023-06-30T07:33:44.426Z,17.00
2023-06-30T07:34:44.196Z,17.01
2023-06-30T07:35:44.639Z,16.97
2023-06-30T07:36:44.157Z,16.96
2023-06-30T07:37:44.198Z,16.96
2023-06-30T07:38:44.164Z,16.98
2023-06-30T07:39:44.131Z,16.97
2023-06-30T07:40:55.074Z,16.98
2023-06-30T07:41:45.144Z,16.97
2023-06-30T07:42:44.090Z,17.04
2023-06-30T07:43:44.103Z,17.08
2023-06-30T07:44:44.077Z,17.11
2023-06-30T07:45:44.493Z,17.15
2023-06-30T07:46:44.046Z,17.18
2023-06-30T07:47:44.240Z,17.22
2023-06-30T07:48:44.126Z,17.34
2023-06-30T07:49:44.019Z,17.44
2023-06-30T07:50:54.679Z,17.51
2023-06-30T07:51:45.021Z,17.55
2023-06-30T07:52:44.260Z,17.54
2023-06-30T07:53:43.981Z,17.54
2023-06-30T07:54:43.960Z,17.54
2023-06-30T07:55:44.238Z,17.52
2023-06-30T07:56:43.954Z,17.54
2023-06-30T07:57:44.199Z,17.59
2023-06-30T07:58:43.921Z,17.59
2023-06-30T07:59:43.918Z,17.63
2023-06-30T08:00:43.899Z,17.63
2023-06-30T08:01:44.188Z,17.66
2023-06-30T08:02:44.316Z,17.75
2023-06-30T08:03:44.093Z,17.89
2023-06-30T08:04:44.004Z,17.92
2023-06-30T08:05:44.431Z,17.95
2023-06-30T08:06:43.890Z,17.92
2023-06-30T08:07:48.958Z,17.79
2023-06-30T08:08:44.807Z,17.77
2023-06-30T08:09:43.799Z,17.81
2023-06-30T08:10:44.946Z,17.84
2023-06-30T08:11:44.037Z,17.89
2023-06-30T08:12:43.800Z,17.93
2023-06-30T08:13:43.813Z,17.95
2023-06-30T08:14:43.749Z,18.05
2023-06-30T08:15:45.906Z,18.15
2023-06-30T08:16:44.174Z,18.26
2023-06-30T08:17:52.811Z,18.32
2023-06-30T08:18:50.600Z,18.35
2023-06-30T08:19:48.232Z,18.44
2023-06-30T08:20:43.910Z,18.51
2023-06-30T08:21:43.712Z,18.54
2023-06-30T08:22:45.016Z,18.60
2023-06-30T08:23:43.649Z,18.66
2023-06-30T08:24:43.638Z,18.75
2023-06-30T08:25:43.998Z,19.00
2023-06-30T08:26:43.631Z,19.25
2023-06-30T08:27:43.764Z,19.44
2023-06-30T08:28:43.591Z,19.61
2023-06-30T08:29:43.579Z,19.65
2023-06-30T08:30:43.640Z,19.63
2023-06-30T08:31:43.563Z,19.69
2023-06-30T08:32:43.545Z,19.63
2023-06-30T08:33:43.560Z,19.78
2023-06-30T08:34:43.540Z,19.73
2023-06-30T08:35:43.833Z,19.83
2023-06-30T08:36:43.499Z,20.05
2023-06-30T08:37:43.496Z,20.08
2023-06-30T08:38:43.486Z,19.88
2023-06-30T08:39:43.551Z,19.94
2023-06-30T08:40:43.475Z,20.06
2023-06-30T08:41:43.471Z,20.13
2023-06-30T08:42:43.477Z,20.14
2023-06-30T08:43:43.435Z,20.23
2023-06-30T08:44:43.439Z,20.11
2023-06-30T08:45:43.778Z,20.20
2023-06-30T08:46:43.419Z,20.02
2023-06-30T08:47:43.565Z,20.10
2023-06-30T08:48:43.389Z,20.20
2023-06-30T08:49:43.392Z,20.28
2023-06-30T08:50:43.371Z,20.42
2023-06-30T08:51:43.343Z,20.62
2023-06-30T08:52:43.347Z,20.67
2023-06-30T08:53:43.341Z,20.74
2023-06-30T08:54:43.338Z,20.82
2023-06-30T08:55:43.605Z,20.66
2023-06-30T08:56:43.299Z,20.62
2023-06-30T08:57:43.295Z,20.74
2023-06-30T08:58:43.335Z,20.89
2023-06-30T08:59:43.272Z,20.89
2023-06-30T09:00:43.281Z,20.77
2023-06-30T09:01:44.898Z,20.64
2023-06-30T09:02:43.346Z,20.58
2023-06-30T09:03:43.281Z,20.69
2023-06-30T09:04:43.295Z,20.64
2023-06-30T09:05:43.319Z,20.62
2023-06-30T09:06:43.183Z,20.51
2023-06-30T09:07:43.340Z,20.42
2023-06-30T09:08:43.193Z,20.51
2023-06-30T09:09:43.171Z,20.66
2023-06-30T09:10:43.138Z,20.73
2023-06-30T09:11:43.211Z,20.77
2023-06-30T09:12:43.137Z,20.77
2023-06-30T09:13:43.138Z,20.89
2023-06-30T09:14:43.110Z,20.89
2023-06-30T09:15:43.572Z,20.95
2023-06-30T09:16:43.092Z,21.16
2023-06-30T09:17:43.114Z,21.24
2023-06-30T09:18:43.057Z,21.06
2023-06-30T09:19:43.059Z,21.06
2023-06-30T09:20:43.054Z,21.19
2023-06-30T09:21:43.045Z,21.38
2023-06-30T09:22:54.736Z,21.27
2023-06-30T09:23:44.032Z,21.38
2023-06-30T09:24:43.010Z,21.65
2023-06-30T09:25:43.109Z,21.75
2023-06-30T09:26:42.983Z,21.67
2023-06-30T09:27:42.995Z,21.40
2023-06-30T09:28:42.961Z,20.91
2023-06-30T09:29:42.956Z,20.92
2023-06-30T09:30:42.934Z,21.07
2023-06-30T09:31:43.019Z,21.19
2023-06-30T09:32:43.079Z,21.24
2023-06-30T09:33:42.905Z,21.21
2023-06-30T09:34:42.905Z,21.27
2023-06-30T09:35:43.385Z,21.43
2023-06-30T09:36:43.104Z,21.29
2023-06-30T09:37:42.871Z,21.31
2023-06-30T09:38:42.854Z,21.35
2023-06-30T09:39:42.863Z,21.46
2023-06-30T09:40:42.843Z,21.40
2023-06-30T09:41:42.823Z,21.44
2023-06-30T09:42:43.345Z,21.44
2023-06-30T09:43:42.807Z,21.42
2023-06-30T09:44:42.780Z,21.58
2023-06-30T09:45:43.072Z,21.99
2023-06-30T09:46:42.854Z,22.06
2023-06-30T09:47:42.825Z,21.91
2023-06-30T09:48:42.742Z,21.54
2023-06-30T09:49:42.790Z,21.21
2023-06-30T09:50:42.863Z,21.27
2023-06-30T09:51:42.717Z,21.40
2023-06-30T09:52:42.702Z,21.58
2023-06-30T09:53:42.745Z,21.58
2023-06-30T09:54:45.004Z,21.67
2023-06-30T09:55:42.811Z,21.74
2023-06-30T09:56:42.655Z,21.80
2023-06-30T09:57:42.660Z,21.92
2023-06-30T09:58:42.659Z,22.00
2023-06-30T09:59:42.660Z,22.17
2023-06-30T10:00:42.675Z,22.15
2023-06-30T10:01:42.657Z,22.09
2023-06-30T10:02:42.665Z,21.99
2023-06-30T10:03:42.680Z,21.79
2023-06-30T10:04:42.595Z,21.91
2023-06-30T10:05:42.595Z,22.05
2023-06-30T10:06:42.553Z,22.14
2023-06-30T10:07:42.718Z,22.18
2023-06-30T10:08:42.685Z,22.28
2023-06-30T10:09:42.540Z,22.40
2023-06-30T10:10:42.535Z,22.36
2023-06-30T10:11:42.518Z,22.10
2023-06-30T10:12:44.277Z,22.02
2023-06-30T10:13:42.514Z,22.02
2023-06-30T10:14:42.472Z,22.09
2023-06-30T10:15:42.574Z,22.15
2023-06-30T10:16:42.453Z,22.12
2023-06-30T10:17:42.641Z,21.86
2023-06-30T10:18:42.461Z,21.65
2023-06-30T10:19:42.438Z,21.50
2023-06-30T10:21:43.395Z,21.56
2023-06-30T10:22:42.412Z,21.58
2023-06-30T10:23:42.478Z,21.64
2023-06-30T10:24:42.369Z,21.83
2023-06-30T10:25:42.442Z,22.07
2023-06-30T10:26:42.353Z,22.24
2023-06-30T10:27:42.359Z,22.22
2023-06-30T10:28:42.336Z,22.10
2023-06-30T10:29:42.324Z,22.27
2023-06-30T10:30:42.314Z,22.27
2023-06-30T10:31:42.362Z,22.33
2023-06-30T10:32:42.353Z,22.39
2023-06-30T10:33:42.329Z,22.55
2023-06-30T10:34:42.280Z,22.45
2023-06-30T10:35:42.314Z,22.25
2023-06-30T10:36:42.258Z,22.22
2023-06-30T10:37:42.271Z,22.00
2023-06-30T10:38:42.232Z,21.84
2023-06-30T10:39:42.218Z,21.83
2023-06-30T10:40:42.214Z,21.94
2023-06-30T10:41:42.213Z,22.33
2023-06-30T10:42:42.206Z,22.60
2023-06-30T10:43:42.192Z,22.73
2023-06-30T10:44:42.182Z,22.73
2023-06-30T10:45:42.290Z,22.73
2023-06-30T10:46:42.246Z,22.35
2023-06-30T10:47:42.150Z,22.42
2023-06-30T10:48:42.124Z,22.60
2023-06-30T10:49:42.130Z,22.51
2023-06-30T10:50:42.154Z,22.39
2023-06-30T10:51:42.121Z,22.28
2023-06-30T10:52:42.093Z,22.24
2023-06-30T10:53:42.077Z,22.33
2023-06-30T10:54:42.138Z,22.47
2023-06-30T10:55:42.079Z,22.49
2023-06-30T10:56:42.082Z,22.80
2023-06-30T10:57:42.055Z,23.17
2023-06-30T10:58:42.074Z,23.47
2023-06-30T10:59:42.024Z,23.54
2023-06-30T11:00:42.031Z,23.75
2023-06-30T11:01:42.000Z,23.87
2023-06-30T11:02:42.113Z,23.85
2023-06-30T11:03:42.106Z,23.84
2023-06-30T11:04:42.169Z,23.91
2023-06-30T11:05:42.062Z,23.87
2023-06-30T11:06:41.964Z,23.58
2023-06-30T11:07:41.980Z,23.57
2023-06-30T11:08:41.938Z,23.57
2023-06-30T11:09:41.925Z,23.33
2023-06-30T11:10:41.927Z,23.13
2023-06-30T11:11:41.899Z,23.13
2023-06-30T11:12:41.885Z,22.95
2023-06-30T11:13:41.879Z,22.73
2023-06-30T11:14:41.891Z,22.61
2023-06-30T11:15:42.013Z,22.61
2023-06-30T11:16:41.857Z,22.64
2023-06-30T11:17:41.916Z,22.62
2023-06-30T11:18:41.938Z,22.65
2023-06-30T11:19:41.853Z,22.77
2023-06-30T11:20:41.822Z,23.05
2023-06-30T11:21:41.807Z,23.12
2023-06-30T11:22:41.791Z,23.23
2023-06-30T11:23:41.834Z,23.15
2023-06-30T11:24:41.776Z,22.76
2023-06-30T11:25:41.764Z,22.46
2023-06-30T11:26:41.748Z,22.40
2023-06-30T11:27:41.750Z,22.60
2023-06-30T11:28:41.744Z,22.52
2023-06-30T11:29:41.772Z,22.46
2023-06-30T11:30:41.728Z,22.24
2023-06-30T11:31:41.705Z,22.20
2023-06-30T11:32:41.764Z,22.18
2023-06-30T11:33:41.695Z,22.20
2023-06-30T11:34:41.665Z,22.27
2023-06-30T11:35:41.673Z,22.37
2023-06-30T11:36:41.654Z,22.45
2023-06-30T11:37:41.662Z,22.60
2023-06-30T11:38:41.664Z,23.02
2023-06-30T11:39:41.625Z,23.46
2023-06-30T11:40:41.625Z,23.57
2023-06-30T11:41:41.603Z,23.69
2023-06-30T11:42:41.652Z,23.78
2023-06-30T11:43:41.582Z,23.76
2023-06-30T11:44:41.571Z,23.66
2023-06-30T11:45:41.628Z,23.72
2023-06-30T11:46:41.569Z,23.83
2023-06-30T11:47:41.739Z,23.70
2023-06-30T11:48:41.538Z,23.53
2023-06-30T11:49:41.521Z,23.69
2023-06-30T11:50:41.510Z,23.90
2023-06-30T11:51:41.515Z,23.85
2023-06-30T11:52:41.500Z,24.12
2023-06-30T11:53:41.498Z,24.34
2023-06-30T11:54:41.466Z,24.25
2023-06-30T11:55:41.515Z,24.35
2023-06-30T11:56:41.471Z,24.47
2023-06-30T11:57:41.446Z,24.61
2023-06-30T11:58:41.429Z,24.65
2023-06-30T11:59:41.449Z,24.55
2023-06-30T12:00:41.407Z,24.52
2023-06-30T12:01:41.424Z,24.37
2023-06-30T12:02:41.454Z,24.32
2023-06-30T12:03:41.450Z,24.25
2023-06-30T12:04:41.418Z,24.05
2023-06-30T12:05:41.449Z,24.15
2023-06-30T12:06:41.387Z,24.52
2023-06-30T12:07:41.404Z,24.91
2023-06-30T12:08:41.343Z,25.24
2023-06-30T12:09:41.332Z,25.18
2023-06-30T12:10:41.338Z,24.83
2023-06-30T12:11:41.326Z,24.73
2023-06-30T12:12:41.308Z,24.83
2023-06-30T12:13:41.314Z,24.87
2023-06-30T12:14:41.297Z,24.78
2023-06-30T12:15:41.300Z,24.58
2023-06-30T12:16:41.276Z,24.35
2023-06-30T12:17:41.267Z,24.24
2023-06-30T12:18:41.265Z,24.08
2023-06-30T12:19:41.243Z,24.03
2023-06-30T12:20:41.251Z,23.66
2023-06-30T12:21:41.209Z,23.27
2023-06-30T12:22:41.197Z,23.19
2023-06-30T12:23:41.204Z,23.19
2023-06-30T12:24:41.209Z,23.33
2023-06-30T12:25:41.178Z,23.40
2023-06-30T12:26:41.160Z,23.33
2023-06-30T12:27:41.147Z,23.16
2023-06-30T12:28:41.137Z,23.07
2023-06-30T12:29:41.166Z,23.00
2023-06-30T12:30:41.117Z,23.02
2023-06-30T12:31:41.193Z,22.97
2023-06-30T12:32:41.111Z,22.77
2023-06-30T12:33:41.275Z,22.72
2023-06-30T12:34:41.133Z,22.73
2023-06-30T12:35:41.093Z,22.76
2023-06-30T12:36:41.056Z,22.72
2023-06-30T12:37:41.054Z,22.82
2023-06-30T12:38:41.117Z,22.85
2023-06-30T12:39:41.028Z,22.95
2023-06-30T12:40:41.056Z,23.04
2023-06-30T12:41:41.013Z,23.09
2023-06-30T12:42:41.052Z,23.39
2023-06-30T12:43:40.994Z,23.63
2023-06-30T12:44:40.981Z,23.68
2023-06-30T12:45:40.996Z,23.78
2023-06-30T12:46:41.016Z,23.97
2023-06-30T12:47:40.995Z,23.90
2023-06-30T12:48:40.949Z,23.70
2023-06-30T12:49:40.958Z,23.50
2023-06-30T12:50:40.946Z,23.32
2023-06-30T12:51:40.938Z,23.17
2023-06-30T12:52:40.898Z,23.17
2023-06-30T12:53:40.881Z,23.25